In Rescue
 
Open Full Screen Window  High Contrast Mode
Wind Gusting 00 knots
13
February 25, 2021 5:38 PM EST
Weather Information
Wind Direction
  270 °
Wind Speed
  13 kt (15 mph)
Wind Gust
  00 kt (0 mph)
Altimeter
30.25 in
Visibility
10 SM
Temperature
02° C
36° F
Dewpoint
-08° C
18° F
Humidity
48%
1hr Rain Fall
00.00 in.
24hr Rain Fall
00.00 in.
Sky Condition
Clear
VFR

METAR KY70 252238Z AUTO 27013KT 10SM CLR 02/M08 A3025 RMK AO2 T00201085

FAA Disclaimer: The data displayed is for advisory purposes only and is not to be used for flight planning or operations.